Time;durP1;ratioP1;P1;durP2;ratioP2;P2;SDS_P1;SDS_P2;PMS_P1;PMS_P2;Temp;Humidity;BMP_temperature;BMP_pressure;BME280_temperature;BME280_humidity;BME280_pressure;Samples;Min_cycle;Max_cycle;Signal;HPM_P1;HPM_P2
2022/11/28 00:02:06;;;;;;;5.60;3.90;;;;;;;;;;5025129;28;20227;-79
2022/11/28 00:04:31;;;;;;;5.80;3.63;;;;;;;;;;5005472;28;20192;-79
2022/11/28 00:06:57;;;;;;;4.97;3.43;;;;;;;;;;5020963;28;20247;-80
2022/11/28 00:09:23;;;;;;;5.60;3.50;;;;;;;;;;4999101;28;20203;-79
2022/11/28 00:11:48;;;;;;;3.77;3.20;;;;;;;;;;5017642;28;20468;-78
2022/11/28 00:14:14;;;;;;;4.37;3.60;;;;;;;;;;5015263;28;20187;-79
2022/11/28 00:16:40;;;;;;;5.13;3.40;;;;;;;;;;5027210;28;20185;-80
2022/11/28 00:19:06;;;;;;;4.23;3.00;;;;;;;;;;5028464;28;20431;-81
2022/11/28 00:21:32;;;;;;;3.93;3.20;;;;;;;;;;5033245;28;20911;-81
2022/11/28 00:23:58;;;;;;;4.07;2.90;;;;;;;;;;5020431;28;20192;-81
2022/11/28 00:26:25;;;;;;;5.47;3.70;;;;;;;;;;5025907;28;20423;-81
2022/11/28 00:28:50;;;;;;;4.57;3.40;;;;;;;;;;5032146;28;20439;-81
2022/11/28 00:31:20;;;;;;;3.90;3.50;;;;;;;;;;5034845;28;21040;-81
2022/11/28 00:33:46;;;;;;;5.20;3.70;;;;;;;;;;5028352;28;20185;-81
2022/11/28 00:36:11;;;;;;;4.07;3.43;;;;;;;;;;5035841;28;20424;-81
2022/11/28 00:38:37;;;;;;;4.67;3.47;;;;;;;;;;5034967;28;20182;-81
2022/11/28 00:41:04;;;;;;;4.13;3.77;;;;;;;;;;5036067;28;20200;-81
2022/11/28 00:43:29;;;;;;;3.27;2.97;;;;;;;;;;5040216;28;20180;-81
2022/11/28 00:45:55;;;;;;;4.80;3.10;;;;;;;;;;5023293;28;20445;-81
2022/11/28 00:48:20;;;;;;;6.77;3.67;;;;;;;;;;5036994;28;20181;-81
2022/11/28 00:50:46;;;;;;;5.60;3.30;;;;;;;;;;5019087;28;20305;-80
2022/11/28 00:53:11;;;;;;;4.13;3.73;;;;;;;;;;5030931;28;20169;-80
2022/11/28 00:55:37;;;;;;;4.83;3.27;;;;;;;;;;5016135;28;20176;-80
2022/11/28 00:58:03;;;;;;;5.17;3.63;;;;;;;;;;5026642;28;20263;-80
2022/11/28 01:00:28;;;;;;;5.27;3.23;;;;;;;;;;5015635;28;21060;-80
2022/11/28 01:02:54;;;;;;;4.27;3.87;;;;;;;;;;5015800;28;20275;-78
2022/11/28 01:05:19;;;;;;;4.70;3.90;;;;;;;;;;5004388;28;20867;-76
2022/11/28 01:07:44;;;;;;;4.70;3.50;;;;;;;;;;5020122;28;26714;-77
2022/11/28 01:10:10;;;;;;;4.47;4.03;;;;;;;;;;5015759;28;20219;-78
2022/11/28 01:12:35;;;;;;;5.73;4.00;;;;;;;;;;5015603;28;20173;-79
2022/11/28 01:15:00;;;;;;;4.93;3.53;;;;;;;;;;5020456;28;20176;-78
2022/11/28 01:17:26;;;;;;;4.67;4.10;;;;;;;;;;5017224;28;20200;-79
2022/11/28 01:19:51;;;;;;;5.00;3.77;;;;;;;;;;5002294;28;20226;-79
2022/11/28 01:22:16;;;;;;;4.40;4.00;;;;;;;;;;5016116;28;20675;-79
2022/11/28 01:24:42;;;;;;;5.07;3.63;;;;;;;;;;5016419;28;20185;-79
2022/11/28 01:27:07;;;;;;;4.33;3.93;;;;;;;;;;5002259;28;20173;-79
2022/11/28 01:29:32;;;;;;;4.10;3.70;;;;;;;;;;4999139;28;20232;-78
2022/11/28 01:31:58;;;;;;;7.30;4.23;;;;;;;;;;5016506;28;20204;-77
2022/11/28 01:34:23;;;;;;;5.10;4.50;;;;;;;;;;5013259;28;20172;-78
2022/11/28 01:36:48;;;;;;;5.47;4.27;;;;;;;;;;5012409;28;20223;-78
2022/11/28 01:39:14;;;;;;;4.30;3.90;;;;;;;;;;4999086;28;20551;-78
2022/11/28 01:41:40;;;;;;;4.70;4.30;;;;;;;;;;5003909;28;20295;-78
2022/11/28 01:44:05;;;;;;;6.20;4.90;;;;;;;;;;5021646;28;20430;-78
2022/11/28 01:46:31;;;;;;;6.77;4.60;;;;;;;;;;5020182;28;20271;-78
2022/11/28 01:48:58;;;;;;;7.77;4.60;;;;;;;;;;5023692;28;20188;-79
2022/11/28 01:51:24;;;;;;;5.30;4.53;;;;;;;;;;5020364;28;20205;-79
2022/11/28 01:53:49;;;;;;;4.97;4.50;;;;;;;;;;5000707;28;20805;-79
2022/11/28 01:56:17;;;;;;;4.87;4.37;;;;;;;;;;5021133;28;20551;-78
2022/11/28 01:58:44;;;;;;;4.43;4.03;;;;;;;;;;5020102;28;20181;-78
2022/11/28 02:01:10;;;;;;;5.77;4.80;;;;;;;;;;5021213;28;20486;-79
2022/11/28 02:03:45;;;;;;;6.70;4.20;;;;;;;;;;5022370;28;20947;-78
2022/11/28 02:06:12;;;;;;;5.97;4.60;;;;;;;;;;5015978;28;20192;-78
2022/11/28 02:08:38;;;;;;;8.37;5.30;;;;;;;;;;5018400;28;20450;-78
2022/11/28 02:11:18;;;;;;;5.33;4.30;;;;;;;;;;5017998;28;20463;-78
2022/11/28 02:13:44;;;;;;;5.67;4.97;;;;;;;;;;5022763;28;20546;-79
2022/11/28 02:16:12;;;;;;;17.00;4.40;;;;;;;;;;5021971;28;20549;-78
2022/11/28 02:18:56;;;;;;;5.97;4.63;;;;;;;;;;5017206;28;20606;-79
2022/11/28 02:21:30;;;;;;;5.77;4.57;;;;;;;;;;5026769;28;20490;-79
2022/11/28 02:24:01;;;;;;;6.07;4.60;;;;;;;;;;5029490;28;20438;-79
2022/11/28 02:26:50;;;;;;;6.03;4.50;;;;;;;;;;5030119;28;20453;-80
2022/11/28 02:29:18;;;;;;;5.60;5.10;;;;;;;;;;5019381;28;20434;-79
2022/11/28 02:31:49;;;;;;;5.27;4.70;;;;;;;;;;5034051;28;20966;-80
2022/11/28 02:34:21;;;;;;;6.90;4.90;;;;;;;;;;5034189;28;20508;-80
2022/11/28 02:36:49;;;;;;;5.33;4.80;;;;;;;;;;5035085;28;20446;-80
2022/11/28 02:39:20;;;;;;;4.53;4.13;;;;;;;;;;5015877;28;20484;-80
2022/11/28 02:42:06;;;;;;;5.67;4.97;;;;;;;;;;5035255;28;20520;-80
2022/11/28 02:44:37;;;;;;;4.73;4.27;;;;;;;;;;5021969;28;20442;-80
2022/11/28 02:47:11;;;;;;;8.23;4.53;;;;;;;;;;5013169;28;20523;-80
2022/11/28 02:49:43;;;;;;;5.83;4.73;;;;;;;;;;5033689;28;20477;-80
2022/11/28 02:52:11;;;;;;;5.13;4.63;;;;;;;;;;5028769;28;20534;-80
2022/11/28 02:54:38;;;;;;;5.47;4.97;;;;;;;;;;5028580;28;20445;-80
2022/11/28 02:57:03;;;;;;;5.33;4.63;;;;;;;;;;5030692;28;20423;-80
2022/11/28 02:59:35;;;;;;;6.47;5.00;;;;;;;;;;5025944;28;20980;-81
2022/11/28 03:02:01;;;;;;;8.00;6.20;;;;;;;;;;5020971;28;20219;-80
2022/11/28 03:04:41;;;;;;;7.70;5.00;;;;;;;;;;5029700;28;20981;-81
2022/11/28 03:07:32;;;;;;;5.73;5.10;;;;;;;;;;5030038;28;20176;-80
2022/11/28 03:10:04;;;;;;;5.57;5.07;;;;;;;;;;5018342;28;20442;-80
2022/11/28 03:12:38;;;;;;;6.10;5.30;;;;;;;;;;5023108;28;20425;-80
2022/11/28 03:15:05;;;;;;;7.27;5.57;;;;;;;;;;5030854;28;20433;-79
2022/11/28 03:17:30;;;;;;;6.30;5.70;;;;;;;;;;5025142;28;20428;-80
2022/11/28 03:20:00;;;;;;;6.00;5.37;;;;;;;;;;5029196;28;20487;-80
2022/11/28 03:22:36;;;;;;;7.20;6.20;;;;;;;;;;5030249;28;21095;-79
2022/11/28 03:25:07;;;;;;;8.07;5.80;;;;;;;;;;5028218;28;20433;-80
2022/11/28 03:27:36;;;;;;;6.73;5.97;;;;;;;;;;5008240;28;20435;-79
2022/11/28 03:30:07;;;;;;;5.77;5.17;;;;;;;;;;5027337;28;20439;-79
2022/11/28 03:32:34;;;;;;;9.30;7.00;;;;;;;;;;5030774;28;20454;-80
2022/11/28 03:35:03;;;;;;;14.00;6.27;;;;;;;;;;5034819;28;20435;-81
2022/11/28 03:37:31;;;;;;;6.50;5.30;;;;;;;;;;5032568;28;20428;-80
2022/11/28 03:39:59;;;;;;;7.07;6.37;;;;;;;;;;5036523;28;20435;-80
2022/11/28 03:42:27;;;;;;;8.83;6.67;;;;;;;;;;5034366;28;20497;-80
2022/11/28 03:44:58;;;;;;;7.83;6.30;;;;;;;;;;5031678;28;20456;-81
2022/11/28 03:47:25;;;;;;;7.77;6.30;;;;;;;;;;5035153;28;20427;-81
2022/11/28 03:49:51;;;;;;;8.50;6.20;;;;;;;;;;5034976;28;20801;-81
2022/11/28 03:52:23;;;;;;;7.90;6.40;;;;;;;;;;5041343;28;20435;-81
2022/11/28 03:54:56;;;;;;;7.37;5.90;;;;;;;;;;5023825;28;21682;-81
2022/11/28 03:57:24;;;;;;;8.20;5.80;;;;;;;;;;5036674;28;20590;-80
2022/11/28 03:59:51;;;;;;;8.70;6.10;;;;;;;;;;5032745;28;20945;-81
2022/11/28 04:02:22;;;;;;;7.40;6.70;;;;;;;;;;5037524;28;20435;-81
2022/11/28 04:05:05;;;;;;;7.57;5.97;;;;;;;;;;5034055;28;20437;-81
2022/11/28 04:07:30;;;;;;;8.30;6.70;;;;;;;;;;5034481;28;20438;-80
2022/11/28 04:09:56;;;;;;;7.77;6.80;;;;;;;;;;5034552;28;20436;-80
2022/11/28 04:12:30;;;;;;;7.30;6.40;;;;;;;;;;5038177;28;20203;-80
2022/11/28 04:15:08;;;;;;;9.60;5.93;;;;;;;;;;5022669;28;20172;-81
2022/11/28 04:17:52;;;;;;;12.23;6.60;;;;;;;;;;5020942;28;20427;-81
2022/11/28 04:20:26;;;;;;;9.77;7.33;;;;;;;;;;5040473;28;20446;-81
2022/11/28 04:22:53;;;;;;;9.27;6.33;;;;;;;;;;5040421;28;20424;-81
2022/11/28 04:25:20;;;;;;;7.70;6.50;;;;;;;;;;5040222;28;20451;-81
2022/11/28 04:27:48;;;;;;;8.13;6.27;;;;;;;;;;5039809;28;20427;-81
2022/11/28 04:30:14;;;;;;;7.67;6.00;;;;;;;;;;5035698;28;20478;-81
2022/11/28 04:32:43;;;;;;;7.70;6.07;;;;;;;;;;5036019;28;20828;-81
2022/11/28 04:35:11;;;;;;;6.57;5.83;;;;;;;;;;5042263;28;20195;-81
2022/11/28 04:37:37;;;;;;;7.87;5.83;;;;;;;;;;5035769;28;20436;-81
2022/11/28 04:40:04;;;;;;;6.37;5.30;;;;;;;;;;5038103;28;20426;-81
2022/11/28 04:42:34;;;;;;;8.37;5.73;;;;;;;;;;5020113;28;20466;-81
2022/11/28 04:45:07;;;;;;;6.73;6.00;;;;;;;;;;5036451;28;20459;-81
2022/11/28 04:47:32;;;;;;;8.53;5.70;;;;;;;;;;5035240;28;20695;-81
2022/11/28 04:49:57;;;;;;;6.73;5.93;;;;;;;;;;5040089;28;20457;-81
2022/11/28 04:52:23;;;;;;;6.73;5.77;;;;;;;;;;5036535;28;20215;-81
2022/11/28 04:55:10;;;;;;;6.63;5.93;;;;;;;;;;5028927;28;20181;-80
2022/11/28 04:57:37;;;;;;;9.10;6.40;;;;;;;;;;5016645;28;20180;-80
2022/11/28 05:00:05;;;;;;;7.10;6.33;;;;;;;;;;5013395;28;20437;-81
2022/11/28 05:02:32;;;;;;;10.17;5.70;;;;;;;;;;5027038;28;20427;-80
2022/11/28 05:04:58;;;;;;;5.63;5.13;;;;;;;;;;5027829;28;20450;-80
2022/11/28 05:07:24;;;;;;;8.67;6.13;;;;;;;;;;5019174;28;20431;-81
2022/11/28 05:09:49;;;;;;;6.70;5.20;;;;;;;;;;5027893;28;20821;-81
2022/11/28 05:12:15;;;;;;;6.30;5.40;;;;;;;;;;5014675;28;20208;-81
2022/11/28 05:14:40;;;;;;;6.80;6.10;;;;;;;;;;5036827;28;20172;-81
2022/11/28 05:17:06;;;;;;;5.77;5.17;;;;;;;;;;5041302;28;20177;-81
2022/11/28 05:19:31;;;;;;;6.30;5.70;;;;;;;;;;5018481;28;20279;-81
2022/11/28 05:21:57;;;;;;;9.07;6.20;;;;;;;;;;5014908;28;20208;-80
2022/11/28 05:24:22;;;;;;;7.60;5.97;;;;;;;;;;5033736;28;20200;-81
2022/11/28 05:26:48;;;;;;;7.90;6.33;;;;;;;;;;5019695;28;20267;-80
2022/11/28 05:29:14;;;;;;;7.27;5.83;;;;;;;;;;5018993;28;20216;-81
2022/11/28 05:31:39;;;;;;;7.70;5.60;;;;;;;;;;5034221;28;20219;-81
2022/11/28 05:34:07;;;;;;;8.47;5.93;;;;;;;;;;5035459;23;20785;-69
2022/11/28 05:36:33;;;;;;;8.37;5.60;;;;;;;;;;5024440;28;20178;-66
2022/11/28 05:38:58;;;;;;;8.40;7.10;;;;;;;;;;5004966;28;20874;-66
2022/11/28 05:41:24;;;;;;;7.20;6.47;;;;;;;;;;5021315;28;20185;-66
2022/11/28 05:43:50;;;;;;;7.40;6.07;;;;;;;;;;5022677;28;20205;-66
2022/11/28 05:46:16;;;;;;;6.77;5.90;;;;;;;;;;4983367;28;20494;-67
2022/11/28 05:48:41;;;;;;;7.30;6.23;;;;;;;;;;4984659;28;20185;-67
2022/11/28 05:51:07;;;;;;;7.37;6.63;;;;;;;;;;5004672;28;20283;-66
2022/11/28 05:53:32;;;;;;;6.13;5.53;;;;;;;;;;5000957;28;20206;-66
2022/11/28 05:55:57;;;;;;;7.07;6.43;;;;;;;;;;5003472;28;20300;-66
2022/11/28 05:58:23;;;;;;;8.37;7.43;;;;;;;;;;5000626;28;20272;-66
2022/11/28 06:00:48;;;;;;;7.20;6.00;;;;;;;;;;5001986;28;20185;-67
2022/11/28 06:03:13;;;;;;;6.70;6.10;;;;;;;;;;4998523;28;20201;-66
2022/11/28 06:05:39;;;;;;;7.90;7.10;;;;;;;;;;5001903;28;20196;-67
2022/11/28 06:08:05;;;;;;;6.90;6.30;;;;;;;;;;4984174;28;20185;-66
2022/11/28 06:10:30;;;;;;;8.57;6.50;;;;;;;;;;4986300;28;20551;-66
2022/11/28 06:12:55;;;;;;;7.23;6.53;;;;;;;;;;5000575;28;20197;-66
2022/11/28 06:15:20;;;;;;;6.90;6.20;;;;;;;;;;4999344;28;20473;-66
2022/11/28 06:17:46;;;;;;;7.30;6.60;;;;;;;;;;4984092;28;20214;-66
2022/11/28 06:20:11;;;;;;;7.37;6.67;;;;;;;;;;4999732;28;20465;-67
2022/11/28 06:22:36;;;;;;;7.63;6.80;;;;;;;;;;4999386;28;20228;-67
2022/11/28 06:25:01;;;;;;;9.53;7.40;;;;;;;;;;5001718;28;20685;-66
2022/11/28 06:27:27;;;;;;;8.60;7.63;;;;;;;;;;5002394;28;20299;-67
2022/11/28 06:29:53;;;;;;;11.60;9.00;;;;;;;;;;5003059;28;20182;-67
2022/11/28 06:32:18;;;;;;;10.70;9.57;;;;;;;;;;5004980;28;20606;-67
2022/11/28 06:34:43;;;;;;;11.00;9.90;;;;;;;;;;5002835;28;20279;-69
2022/11/28 06:37:08;;;;;;;9.97;8.97;;;;;;;;;;5003952;28;20177;-69
2022/11/28 06:39:34;;;;;;;12.00;9.67;;;;;;;;;;5002050;28;20224;-68
2022/11/28 06:41:59;;;;;;;10.13;9.17;;;;;;;;;;5003053;28;20609;-69
2022/11/28 06:44:24;;;;;;;10.80;9.70;;;;;;;;;;5004328;28;20276;-68
2022/11/28 06:46:50;;;;;;;11.70;10.03;;;;;;;;;;5004258;28;20209;-68
2022/11/28 06:49:15;;;;;;;11.03;9.93;;;;;;;;;;4998954;28;20188;-68
2022/11/28 06:51:41;;;;;;;11.93;10.73;;;;;;;;;;5002597;28;20301;-67
2022/11/28 06:54:07;;;;;;;13.87;11.37;;;;;;;;;;5001096;28;20224;-67
2022/11/28 06:56:32;;;;;;;12.90;11.60;;;;;;;;;;4996991;28;20437;-67
2022/11/28 06:58:58;;;;;;;10.63;9.57;;;;;;;;;;4996890;28;20432;-67
2022/11/28 07:01:24;;;;;;;10.50;9.60;;;;;;;;;;4999920;28;20180;-68
2022/11/28 07:03:50;;;;;;;14.90;12.27;;;;;;;;;;5001418;28;20452;-68
2022/11/28 07:06:18;;;;;;;15.17;11.93;;;;;;;;;;5001028;28;20847;-68
2022/11/28 07:08:43;;;;;;;12.03;10.93;;;;;;;;;;4996358;28;20479;-67
2022/11/28 07:11:11;;;;;;;11.30;10.20;;;;;;;;;;5001307;28;20599;-67
2022/11/28 07:13:37;;;;;;;13.17;11.87;;;;;;;;;;4999637;28;20202;-67
2022/11/28 07:16:02;;;;;;;12.57;11.40;;;;;;;;;;4998082;28;20429;-67
2022/11/28 07:18:28;;;;;;;12.33;11.13;;;;;;;;;;4999663;28;20182;-67
2022/11/28 07:20:53;;;;;;;13.70;12.40;;;;;;;;;;4985627;28;20194;-67
2022/11/28 07:23:18;;;;;;;12.60;11.00;;;;;;;;;;5000820;28;20201;-68
2022/11/28 07:25:44;;;;;;;12.40;11.17;;;;;;;;;;5000628;28;20711;-67
2022/11/28 07:28:09;;;;;;;12.67;11.47;;;;;;;;;;5013026;28;20200;-68
2022/11/28 07:30:34;;;;;;;13.83;12.40;;;;;;;;;;4983711;28;20205;-67
2022/11/28 07:32:59;;;;;;;14.20;12.70;;;;;;;;;;4996791;28;20205;-67
2022/11/28 07:35:25;;;;;;;13.17;11.87;;;;;;;;;;4983536;28;20672;-67
2022/11/28 07:37:50;;;;;;;15.03;12.07;;;;;;;;;;4998401;28;20191;-68
2022/11/28 07:40:18;;;;;;;12.50;11.23;;;;;;;;;;4998945;28;20280;-67
2022/11/28 07:42:44;;;;;;;13.63;12.30;;;;;;;;;;5000285;28;20350;-68
2022/11/28 07:45:09;;;;;;;16.20;11.97;;;;;;;;;;4997175;28;20907;-68
2022/11/28 07:47:34;;;;;;;12.87;11.57;;;;;;;;;;4997609;28;20192;-67
2022/11/28 07:50:00;;;;;;;12.93;11.73;;;;;;;;;;4997474;28;20264;-68
2022/11/28 07:52:25;;;;;;;12.73;11.60;;;;;;;;;;5001176;28;20204;-67
2022/11/28 07:54:50;;;;;;;18.73;13.00;;;;;;;;;;4999908;28;20173;-67
2022/11/28 07:57:16;;;;;;;12.63;11.33;;;;;;;;;;5000647;28;20185;-67
2022/11/28 07:59:42;;;;;;;12.43;11.23;;;;;;;;;;4996481;28;20192;-67
2022/11/28 08:02:08;;;;;;;12.93;11.73;;;;;;;;;;4999323;28;20196;-67
2022/11/28 08:04:35;;;;;;;13.60;12.37;;;;;;;;;;4996033;28;20461;-66
2022/11/28 08:07:00;;;;;;;13.97;12.10;;;;;;;;;;4994884;28;20555;-66
2022/11/28 08:09:25;;;;;;;12.50;11.27;;;;;;;;;;4999880;28;20571;-66
2022/11/28 08:11:51;;;;;;;12.27;11.07;;;;;;;;;;4996547;28;20219;-66
2022/11/28 08:14:16;;;;;;;14.33;12.60;;;;;;;;;;4997345;28;20667;-66
2022/11/28 08:16:46;;;;;;;13.90;12.50;;;;;;;;;;4996697;28;20205;-66
2022/11/28 08:19:11;;;;;;;13.73;12.40;;;;;;;;;;4997875;28;20429;-67
2022/11/28 08:21:36;;;;;;;13.33;12.07;;;;;;;;;;5000323;28;20456;-66
2022/11/28 08:24:02;;;;;;;14.77;13.00;;;;;;;;;;4995314;28;20209;-66
2022/11/28 08:26:28;;;;;;;13.93;12.57;;;;;;;;;;4994542;28;20694;-66
2022/11/28 08:28:53;;;;;;;13.60;12.30;;;;;;;;;;4995183;28;20437;-67
2022/11/28 08:31:20;;;;;;;13.30;12.07;;;;;;;;;;4980691;28;20208;-66
2022/11/28 08:33:46;;;;;;;12.73;11.63;;;;;;;;;;4982551;28;20227;-67
2022/11/28 08:36:13;;;;;;;13.17;11.87;;;;;;;;;;4997402;28;20804;-66
2022/11/28 08:38:39;;;;;;;14.80;12.20;;;;;;;;;;4994250;28;20428;-66
2022/11/28 08:41:06;;;;;;;13.57;12.27;;;;;;;;;;4996040;28;20511;-66
2022/11/28 08:43:32;;;;;;;14.87;13.37;;;;;;;;;;4982900;28;20460;-66
2022/11/28 08:45:57;;;;;;;14.47;11.80;;;;;;;;;;4998426;28;20436;-66
2022/11/28 08:48:22;;;;;;;15.47;13.87;;;;;;;;;;4994385;28;20424;-67
2022/11/28 08:50:48;;;;;;;14.00;12.63;;;;;;;;;;4992670;28;20379;-66
2022/11/28 08:53:13;;;;;;;14.90;13.27;;;;;;;;;;4977104;28;20209;-66
2022/11/28 08:55:43;;;;;;;13.83;12.53;;;;;;;;;;4994958;28;20256;-67
2022/11/28 08:58:09;;;;;;;14.37;12.43;;;;;;;;;;4999512;28;20215;-67
2022/11/28 09:00:34;;;;;;;14.33;12.93;;;;;;;;;;4997853;28;20772;-66
2022/11/28 09:02:59;;;;;;;13.30;12.10;;;;;;;;;;4995817;28;20229;-66
2022/11/28 09:05:24;;;;;;;14.60;13.20;;;;;;;;;;4994883;28;20181;-66
2022/11/28 09:07:53;;;;;;;14.57;12.90;;;;;;;;;;4996660;28;20201;-66
2022/11/28 09:10:18;;;;;;;13.53;12.20;;;;;;;;;;4996674;28;20211;-66
2022/11/28 09:12:43;;;;;;;15.30;13.80;;;;;;;;;;4983550;28;21030;-66
2022/11/28 09:15:09;;;;;;;12.97;11.77;;;;;;;;;;4997179;28;20189;-66
2022/11/28 09:17:34;;;;;;;14.50;13.20;;;;;;;;;;4995500;28;20244;-66
2022/11/28 09:19:59;;;;;;;14.53;13.13;;;;;;;;;;4984418;28;20199;-66
2022/11/28 09:22:27;;;;;;;15.37;13.90;;;;;;;;;;5000729;28;20224;-67
2022/11/28 09:24:52;;;;;;;16.23;14.70;;;;;;;;;;4998928;28;20192;-66
2022/11/28 09:27:17;;;;;;;14.80;13.33;;;;;;;;;;5000695;28;20436;-67
2022/11/28 09:29:43;;;;;;;15.90;14.23;;;;;;;;;;4982607;28;20189;-67
2022/11/28 09:32:08;;;;;;;15.73;14.17;;;;;;;;;;5000065;28;20570;-67
2022/11/28 09:34:34;;;;;;;14.57;13.23;;;;;;;;;;4982376;28;20475;-66
2022/11/28 09:36:59;;;;;;;15.20;13.57;;;;;;;;;;4983761;28;20547;-66
2022/11/28 09:39:24;;;;;;;17.20;13.27;;;;;;;;;;5000893;28;20268;-66
2022/11/28 09:41:55;;;;;;;14.03;12.63;;;;;;;;;;5000346;28;20560;-66
2022/11/28 09:44:21;;;;;;;15.13;13.63;;;;;;;;;;5000568;28;20216;-67
2022/11/28 09:46:47;;;;;;;15.03;13.60;;;;;;;;;;5001461;28;20428;-67
2022/11/28 09:49:20;;;;;;;14.57;13.00;;;;;;;;;;5000072;28;20432;-67
2022/11/28 09:52:01;;;;;;;13.97;12.70;;;;;;;;;;4998863;28;20578;-67
2022/11/28 09:54:29;;;;;;;14.20;12.70;;;;;;;;;;5000817;28;20479;-67
2022/11/28 09:56:55;;;;;;;15.83;14.27;;;;;;;;;;5000585;28;20460;-67
2022/11/28 09:59:25;;;;;;;15.03;13.63;;;;;;;;;;4998046;28;20451;-66
2022/11/28 10:02:19;;;;;;;14.60;13.20;;;;;;;;;;4994331;28;20467;-67
2022/11/28 10:04:54;;;;;;;13.67;12.27;;;;;;;;;;4988685;28;20532;-66
2022/11/28 10:07:23;;;;;;;15.87;14.37;;;;;;;;;;5012468;28;20437;-66
2022/11/28 10:09:58;;;;;;;15.00;13.43;;;;;;;;;;4982666;28;20466;-67
2022/11/28 10:12:39;;;;;;;15.93;14.43;;;;;;;;;;4999481;28;20467;-67
2022/11/28 10:15:04;;;;;;;14.30;12.93;;;;;;;;;;5000986;28;20876;-67
2022/11/28 10:17:43;;;;;;;16.27;14.60;;;;;;;;;;4999503;28;20468;-66
2022/11/28 10:20:11;;;;;;;13.97;12.63;;;;;;;;;;4984959;28;20726;-66
2022/11/28 10:22:43;;;;;;;14.73;13.30;;;;;;;;;;4998169;28;20518;-66
2022/11/28 10:25:28;;;;;;;14.73;13.30;;;;;;;;;;5001026;28;20554;-67
2022/11/28 10:27:54;;;;;;;13.53;12.13;;;;;;;;;;4980545;28;20851;-67
2022/11/28 10:30:27;;;;;;;13.93;12.63;;;;;;;;;;4999705;28;21877;-67
2022/11/28 10:33:13;;;;;;;13.27;11.90;;;;;;;;;;4997977;28;20220;-66
2022/11/28 10:35:45;;;;;;;14.00;12.60;;;;;;;;;;4981479;28;20432;-67
2022/11/28 10:38:11;;;;;;;12.57;11.40;;;;;;;;;;4998920;28;20495;-66
2022/11/28 10:40:53;;;;;;;13.50;12.10;;;;;;;;;;5002977;28;20829;-67
2022/11/28 10:43:30;;;;;;;11.90;10.80;;;;;;;;;;4995078;28;20477;-67
2022/11/28 10:46:01;;;;;;;12.17;11.00;;;;;;;;;;4997184;28;20464;-66
2022/11/28 10:48:39;;;;;;;14.20;12.80;;;;;;;;;;4999428;28;20477;-67
2022/11/28 10:51:10;;;;;;;13.07;11.77;;;;;;;;;;4995166;28;20455;-67
2022/11/28 10:53:42;;;;;;;12.00;10.90;;;;;;;;;;4999232;28;20436;-66
2022/11/28 10:56:08;;;;;;;13.10;11.90;;;;;;;;;;5000622;28;20857;-66
2022/11/28 10:58:38;;;;;;;12.03;10.80;;;;;;;;;;4998273;28;20586;-67
2022/11/28 11:01:03;;;;;;;13.33;12.03;;;;;;;;;;4980964;28;20794;-66
2022/11/28 11:03:30;;;;;;;13.37;12.10;;;;;;;;;;5000575;28;20452;-67
2022/11/28 11:05:56;;;;;;;12.20;10.90;;;;;;;;;;4986816;28;20274;-66
2022/11/28 11:08:25;;;;;;;12.00;10.90;;;;;;;;;;5000665;28;20480;-66
2022/11/28 11:10:50;;;;;;;13.00;11.60;;;;;;;;;;5002387;28;20198;-67
2022/11/28 11:13:23;;;;;;;12.43;11.13;;;;;;;;;;4998445;28;20433;-66
2022/11/28 11:15:59;;;;;;;11.47;10.47;;;;;;;;;;5000532;28;20185;-67
2022/11/28 11:18:26;;;;;;;12.53;11.43;;;;;;;;;;5001929;28;20412;-66
2022/11/28 11:21:05;;;;;;;12.60;11.50;;;;;;;;;;5002136;28;20440;-66
2022/11/28 11:23:30;;;;;;;11.07;10.03;;;;;;;;;;5000721;28;20432;-66
2022/11/28 11:25:57;;;;;;;11.37;10.27;;;;;;;;;;5002758;28;20497;-67
2022/11/28 11:28:38;;;;;;;12.00;10.90;;;;;;;;;;5000315;28;20659;-66
2022/11/28 11:31:06;;;;;;;11.00;10.00;;;;;;;;;;5000470;28;20459;-66
2022/11/28 11:33:33;;;;;;;11.27;10.20;;;;;;;;;;4985880;28;20453;-67
2022/11/28 11:35:59;;;;;;;10.60;9.60;;;;;;;;;;4999976;28;20404;-66
2022/11/28 11:38:24;;;;;;;11.00;10.00;;;;;;;;;;5000198;28;20778;-66
2022/11/28 11:40:50;;;;;;;9.60;8.70;;;;;;;;;;4999745;28;20474;-67
2022/11/28 11:43:29;;;;;;;10.13;9.23;;;;;;;;;;4991725;28;20209;-66
2022/11/28 11:46:11;;;;;;;9.80;8.90;;;;;;;;;;4993676;28;20427;-66
2022/11/28 11:48:41;;;;;;;10.53;9.53;;;;;;;;;;4988459;28;20452;-66
2022/11/28 11:51:19;;;;;;;10.60;9.50;;;;;;;;;;4990709;28;20471;-67
2022/11/28 11:53:44;;;;;;;9.27;8.47;;;;;;;;;;4994817;28;20486;-66
2022/11/28 11:56:09;;;;;;;9.60;8.60;;;;;;;;;;4995887;28;20850;-66
2022/11/28 11:58:43;;;;;;;10.97;9.77;;;;;;;;;;4999288;28;20195;-67
2022/11/28 12:01:10;;;;;;;9.47;8.60;;;;;;;;;;4999702;28;20224;-66
2022/11/28 12:03:53;;;;;;;9.27;8.23;;;;;;;;;;4998473;28;20459;-66
2022/11/28 12:06:23;;;;;;;9.47;8.40;;;;;;;;;;4997259;28;20558;-67
2022/11/28 12:08:50;;;;;;;8.70;8.00;;;;;;;;;;4998500;28;20451;-67
2022/11/28 12:11:23;;;;;;;9.37;8.40;;;;;;;;;;4995341;28;20499;-66
2022/11/28 12:13:49;;;;;;;8.60;7.90;;;;;;;;;;4984800;28;21036;-67
2022/11/28 12:16:23;;;;;;;8.93;8.03;;;;;;;;;;4997936;28;20476;-67
2022/11/28 12:18:54;;;;;;;9.93;9.00;;;;;;;;;;4998357;28;20945;-67
2022/11/28 12:21:22;;;;;;;8.03;7.33;;;;;;;;;;4978599;28;20420;-66
2022/11/28 12:24:06;;;;;;;8.87;8.10;;;;;;;;;;4995801;28;20941;-67
2022/11/28 12:26:32;;;;;;;8.97;8.20;;;;;;;;;;4995594;28;20448;-66
2022/11/28 12:28:57;;;;;;;8.20;7.50;;;;;;;;;;4996526;28;20443;-66
2022/11/28 12:31:41;;;;;;;8.53;7.83;;;;;;;;;;4999783;28;20228;-66
2022/11/28 12:34:15;;;;;;;8.17;7.37;;;;;;;;;;4997083;28;20246;-67
2022/11/28 12:36:43;;;;;;;8.63;7.87;;;;;;;;;;4994986;28;20428;-67
2022/11/28 12:39:31;;;;;;;9.30;8.50;;;;;;;;;;4996340;28;21735;-67
2022/11/28 12:42:14;;;;;;;9.47;8.47;;;;;;;;;;4972790;28;20461;-67
2022/11/28 12:44:54;;;;;;;9.40;8.50;;;;;;;;;;4996744;28;20536;-67
2022/11/28 12:47:20;;;;;;;9.10;8.30;;;;;;;;;;4998346;28;20800;-67
2022/11/28 12:50:04;;;;;;;8.30;7.57;;;;;;;;;;4994770;28;20427;-67
2022/11/28 12:52:35;;;;;;;9.20;8.30;;;;;;;;;;4997825;28;20243;-67
2022/11/28 12:55:06;;;;;;;9.00;8.10;;;;;;;;;;4994867;28;20429;-67
2022/11/28 12:57:42;;;;;;;9.33;8.43;;;;;;;;;;4993150;28;20429;-67
2022/11/28 13:00:09;;;;;;;8.83;8.03;;;;;;;;;;4994654;28;21031;-67
2022/11/28 13:02:35;;;;;;;9.10;8.40;;;;;;;;;;4996172;28;20438;-67
2022/11/28 13:05:06;;;;;;;8.63;7.93;;;;;;;;;;4999491;28;20435;-67
2022/11/28 13:07:40;;;;;;;8.73;7.93;;;;;;;;;;4993319;28;20916;-66
2022/11/28 13:10:08;;;;;;;9.20;8.30;;;;;;;;;;4994332;28;20432;-67
2022/11/28 13:12:33;;;;;;;9.20;8.13;;;;;;;;;;4995222;28;21014;-66
2022/11/28 13:15:03;;;;;;;9.00;8.10;;;;;;;;;;4997422;28;20632;-66
2022/11/28 13:17:47;;;;;;;8.10;7.40;;;;;;;;;;4992548;28;20279;-65
2022/11/28 13:20:31;;;;;;;9.03;8.17;;;;;;;;;;4995503;28;20428;-66
2022/11/28 13:23:07;;;;;;;8.80;8.00;;;;;;;;;;4989676;28;20452;-67
2022/11/28 13:25:36;;;;;;;9.73;8.83;;;;;;;;;;4993780;28;20447;-67
2022/11/28 13:28:17;;;;;;;8.83;8.07;;;;;;;;;;4982243;28;20447;-67
2022/11/28 13:30:53;;;;;;;9.00;8.10;;;;;;;;;;4996490;28;20468;-66
2022/11/28 13:33:37;;;;;;;9.60;8.70;;;;;;;;;;4997484;28;20460;-66
2022/11/28 13:36:04;;;;;;;9.60;8.70;;;;;;;;;;4978677;28;20436;-67
2022/11/28 13:38:48;;;;;;;10.13;9.13;;;;;;;;;;4990916;28;20432;-67
2022/11/28 13:41:13;;;;;;;9.80;8.80;;;;;;;;;;4995559;28;20486;-66
2022/11/28 13:43:44;;;;;;;9.20;8.30;;;;;;;;;;4989123;28;20542;-67
2022/11/28 13:46:10;;;;;;;9.43;8.43;;;;;;;;;;4976913;28;20259;-67
2022/11/28 13:48:42;;;;;;;9.47;8.63;;;;;;;;;;5020767;23;20510;-68
2022/11/28 13:51:14;;;;;;;9.40;8.50;;;;;;;;;;5018336;28;20763;-69
2022/11/28 13:53:39;;;;;;;9.10;8.30;;;;;;;;;;5003196;28;20445;-68
2022/11/28 13:56:05;;;;;;;9.30;8.40;;;;;;;;;;5017077;28;20430;-68
2022/11/28 13:58:32;;;;;;;9.67;8.87;;;;;;;;;;5015648;28;20250;-68
2022/11/28 14:01:00;;;;;;;10.40;9.40;;;;;;;;;;5000490;28;20192;-68
2022/11/28 14:03:26;;;;;;;9.83;8.87;;;;;;;;;;5016899;28;20416;-68
2022/11/28 14:05:56;;;;;;;8.93;8.13;;;;;;;;;;5001008;28;20453;-69
2022/11/28 14:08:26;;;;;;;10.40;9.33;;;;;;;;;;5004262;28;20244;-69
2022/11/28 14:10:59;;;;;;;10.23;8.80;;;;;;;;;;5002204;28;20455;-69
2022/11/28 14:13:28;;;;;;;10.17;9.27;;;;;;;;;;5021989;28;20403;-70
2022/11/28 14:15:59;;;;;;;9.73;8.83;;;;;;;;;;5021369;28;20797;-69
2022/11/28 14:18:32;;;;;;;11.57;10.53;;;;;;;;;;5019588;28;20423;-69
2022/11/28 14:20:57;;;;;;;9.70;8.80;;;;;;;;;;5007749;28;20420;-69
2022/11/28 14:23:25;;;;;;;11.30;9.50;;;;;;;;;;5021705;28;20839;-68
2022/11/28 14:25:51;;;;;;;10.27;9.27;;;;;;;;;;5019284;28;20557;-69
2022/11/28 14:28:27;;;;;;;11.17;10.07;;;;;;;;;;5022236;28;20412;-68
2022/11/28 14:31:04;;;;;;;10.37;9.40;;;;;;;;;;5025419;28;20516;-69
2022/11/28 14:33:36;;;;;;;10.73;9.63;;;;;;;;;;5023047;28;20419;-69
2022/11/28 14:36:20;;;;;;;10.13;9.03;;;;;;;;;;5022009;28;20412;-69
2022/11/28 14:38:46;;;;;;;9.83;8.83;;;;;;;;;;5006090;28;21120;-69
2022/11/28 14:41:13;;;;;;;9.63;8.80;;;;;;;;;;5006129;28;20499;-69
2022/11/28 14:43:48;;;;;;;9.23;8.33;;;;;;;;;;5024401;28;20192;-69